Time;durP1;ratioP1;P1;durP2;ratioP2;P2;SDS_P1;SDS_P2;PMS_P1;PMS_P2;Temp;Humidity;BMP_temperature;BMP_pressure;BME280_temperature;BME280_humidity;BME280_pressure;Samples;Min_cycle;Max_cycle;Signal;HPM_P1;HPM_P2
2023/12/24 00:00:18;;;;;;;1.10;0.60;;;7.40;43.20;;;;;;5047798;28;46456;-78
2023/12/24 00:02:44;;;;;;;1.83;0.80;;;7.40;43.20;;;;;;5059294;28;46413;-80
2023/12/24 00:05:09;;;;;;;1.50;0.70;;;7.50;44.50;;;;;;5046087;28;47018;-79
2023/12/24 00:07:35;;;;;;;1.10;0.60;;;7.40;43.30;;;;;;5050118;28;47320;-76
2023/12/24 00:10:00;;;;;;;1.27;0.67;;;7.40;43.30;;;;;;5045597;28;46891;-77
2023/12/24 00:12:26;;;;;;;2.03;0.70;;;7.40;43.20;;;;;;5042385;28;47002;-79
2023/12/24 00:14:53;;;;;;;1.10;0.60;;;7.40;43.10;;;;;;5045622;28;46552;-78
2023/12/24 00:17:19;;;;;;;1.13;0.60;;;7.40;43.10;;;;;;5046149;28;46805;-78
2023/12/24 00:19:44;;;;;;;1.87;0.80;;;7.50;43.20;;;;;;5046336;28;46540;-78
2023/12/24 00:22:11;;;;;;;1.57;0.80;;;7.50;43.20;;;;;;5045647;28;47542;-79
2023/12/24 00:24:36;;;;;;;1.23;0.60;;;7.40;43.10;;;;;;5045498;28;47051;-78
2023/12/24 00:27:02;;;;;;;1.67;0.67;;;7.40;43.10;;;;;;5048928;28;46522;-78
2023/12/24 00:29:28;;;;;;;1.23;0.73;;;7.40;43.30;;;;;;5047891;28;46846;-78
2023/12/24 00:31:53;;;;;;;1.37;0.60;;;7.40;43.50;;;;;;5050231;28;46581;-80
2023/12/24 00:34:19;;;;;;;1.30;0.60;;;7.30;43.50;;;;;;5047794;28;46995;-78
2023/12/24 00:36:44;;;;;;;1.30;0.70;;;7.30;43.50;;;;;;5048194;28;46430;-79
2023/12/24 00:39:10;;;;;;;1.70;0.70;;;7.30;43.70;;;;;;5049165;28;46533;-79
2023/12/24 00:41:39;;;;;;;1.00;0.60;;;7.30;43.80;;;;;;5051394;28;46193;-80
2023/12/24 00:44:05;;;;;;;1.10;0.60;;;7.30;44.00;;;;;;5050565;28;46732;-79
2023/12/24 00:46:30;;;;;;;1.33;0.70;;;7.30;44.00;;;;;;5055305;28;45864;-79
2023/12/24 00:48:55;;;;;;;1.00;0.60;;;7.30;44.10;;;;;;5054350;28;46928;-77
2023/12/24 00:51:21;;;;;;;1.40;0.70;;;7.20;44.00;;;;;;5055814;28;46547;-80
2023/12/24 00:53:46;;;;;;;1.03;0.63;;;7.30;44.10;;;;;;5052986;28;47292;-80
2023/12/24 00:56:12;;;;;;;1.00;0.60;;;7.20;44.20;;;;;;5056265;28;46561;-80
2023/12/24 00:58:38;;;;;;;1.30;0.70;;;7.30;44.30;;;;;;5051304;28;46781;-80
2023/12/24 01:01:03;;;;;;;1.87;0.70;;;7.20;44.30;;;;;;5057492;28;45937;-80
2023/12/24 01:03:29;;;;;;;1.20;0.60;;;7.20;44.30;;;;;;5057308;28;49118;-79
2023/12/24 01:05:54;;;;;;;1.10;0.70;;;7.20;44.30;;;;;;5056918;28;46467;-79
2023/12/24 01:08:20;;;;;;;1.57;0.60;;;7.20;44.30;;;;;;5054640;28;46553;-80
2023/12/24 01:10:47;;;;;;;1.30;0.60;;;7.20;44.40;;;;;;5055041;28;46113;-80
2023/12/24 01:13:18;;;;;;;1.30;0.70;;;7.20;44.30;;;;;;5055791;28;46461;-79
2023/12/24 01:15:46;;;;;;;1.00;0.60;;;7.30;44.30;;;;;;5056383;28;46666;-78
2023/12/24 01:18:13;;;;;;;1.20;0.70;;;7.20;44.20;;;;;;5053205;28;45877;-80
2023/12/24 01:20:39;;;;;;;1.20;0.60;;;7.30;44.30;;;;;;5049651;28;46469;-77
2023/12/24 01:23:05;;;;;;;1.10;0.50;;;7.30;44.40;;;;;;5048054;28;48198;-79
2023/12/24 01:25:31;;;;;;;1.00;0.60;;;7.30;44.40;;;;;;5052279;28;46961;-80
2023/12/24 01:27:56;;;;;;;1.40;0.70;;;7.20;44.30;;;;;;5051806;28;46540;-80
2023/12/24 01:30:22;;;;;;;1.73;0.70;;;7.30;44.40;;;;;;5051679;28;46332;-80
2023/12/24 01:32:47;;;;;;;2.13;1.13;;;7.20;44.30;;;;;;5051703;28;47070;-79
2023/12/24 01:35:13;;;;;;;1.10;0.60;;;7.20;44.40;;;;;;5050732;28;46475;-79
2023/12/24 01:37:38;;;;;;;1.30;0.67;;;7.20;44.40;;;;;;5047273;28;46558;-79
2023/12/24 01:40:04;;;;;;;1.00;0.60;;;7.20;44.50;;;;;;5052056;28;46679;-79
2023/12/24 01:42:30;;;;;;;1.17;0.60;;;7.20;44.40;;;;;;5056539;28;48002;-79
2023/12/24 01:44:56;;;;;;;1.10;0.60;;;7.20;44.30;;;;;;5049606;28;47158;-80
2023/12/24 01:47:22;;;;;;;1.07;0.60;;;7.20;44.40;;;;;;5050718;28;46504;-78
2023/12/24 01:49:49;;;;;;;1.30;0.60;;;7.30;44.40;;;;;;5052260;28;46725;-78
2023/12/24 01:52:16;;;;;;;1.00;0.60;;;7.30;44.50;;;;;;5051474;28;47159;-79
2023/12/24 01:54:42;;;;;;;1.30;0.60;;;7.20;44.30;;;;;;5051205;28;46651;-79
2023/12/24 01:57:08;;;;;;;1.10;0.60;;;7.20;44.50;;;;;;5049222;28;46670;-78
2023/12/24 01:59:34;;;;;;;1.30;0.60;;;7.20;44.50;;;;;;5049801;28;46470;-79
2023/12/24 02:02:01;;;;;;;1.13;0.60;;;7.20;44.50;;;;;;5050876;28;46627;-78
2023/12/24 02:04:27;;;;;;;2.60;0.83;;;7.20;44.50;;;;;;5050501;28;46733;-78
2023/12/24 02:06:52;;;;;;;1.00;0.57;;;7.20;44.50;;;;;;5051590;28;46451;-79
2023/12/24 02:09:18;;;;;;;4.90;0.70;;;7.20;44.40;;;;;;5052593;28;46755;-80
2023/12/24 02:11:44;;;;;;;1.00;0.60;;;7.20;44.50;;;;;;5051525;28;48276;-79
2023/12/24 02:14:09;;;;;;;1.00;0.50;;;7.20;44.30;;;;;;5051700;28;46430;-78
2023/12/24 02:16:39;;;;;;;1.07;0.70;;;7.20;44.40;;;;;;5051733;28;45978;-80
2023/12/24 02:19:06;;;;;;;2.20;0.70;;;7.20;44.40;;;;;;5051086;28;45948;-80
2023/12/24 02:21:32;;;;;;;1.50;0.67;;;7.20;45.70;;;;;;5049904;28;47791;-80
2023/12/24 02:23:57;;;;;;;1.83;0.73;;;7.20;44.50;;;;;;5050732;28;46233;-80
2023/12/24 02:26:34;;;;;;;1.10;0.60;;;7.10;44.40;;;;;;5051346;28;46480;-79
2023/12/24 02:29:06;;;;;;;2.70;0.67;;;7.10;44.50;;;;;;5052258;28;46676;-79
2023/12/24 02:31:33;;;;;;;1.60;0.63;;;7.10;45.90;;;;;;5047934;28;47285;-80
2023/12/24 02:34:02;;;;;;;1.07;0.60;;;7.00;44.80;;;;;;5051327;28;46230;-79
2023/12/24 02:36:29;;;;;;;1.10;0.60;;;7.00;45.20;;;;;;5057136;28;46258;-79
2023/12/24 02:38:56;;;;;;;1.20;0.70;;;6.90;45.30;;;;;;5047889;28;46396;-80
2023/12/24 02:41:22;;;;;;;14.90;0.83;;;6.90;45.30;;;;;;5052818;28;46557;-80
2023/12/24 02:43:47;;;;;;;1.10;0.70;;;6.90;45.50;;;;;;5050495;28;46441;-79
2023/12/24 02:46:13;;;;;;;1.23;0.70;;;6.80;45.50;;;;;;5050502;28;46587;-80
2023/12/24 02:48:38;;;;;;;1.20;0.63;;;6.80;45.50;;;;;;5049024;28;46711;-80
2023/12/24 02:51:04;;;;;;;3.33;0.80;;;6.80;45.50;;;;;;5051998;28;46392;-79
2023/12/24 02:53:30;;;;;;;1.10;0.63;;;6.80;45.20;;;;;;5059812;28;46474;-79
2023/12/24 02:55:55;;;;;;;4.60;0.80;;;6.90;45.20;;;;;;5050586;28;46384;-79
2023/12/24 02:58:21;;;;;;;1.10;0.60;;;6.90;45.00;;;;;;5061009;28;46532;-79
2023/12/24 03:00:46;;;;;;;2.27;0.60;;;7.00;45.00;;;;;;5052812;28;46414;-79
2023/12/24 03:03:12;;;;;;;1.30;0.63;;;7.00;44.90;;;;;;5054488;28;46726;-80
2023/12/24 03:05:38;;;;;;;1.60;0.70;;;7.10;45.00;;;;;;5055466;28;46636;-79
2023/12/24 03:08:03;;;;;;;1.10;0.60;;;7.00;45.00;;;;;;5053115;28;46371;-80
2023/12/24 03:10:29;;;;;;;1.33;0.80;;;7.00;44.90;;;;;;5049173;28;48994;-79
2023/12/24 03:12:54;;;;;;;1.00;0.60;;;7.00;45.00;;;;;;5052699;28;46791;-79
2023/12/24 03:15:20;;;;;;;2.03;0.70;;;7.00;44.90;;;;;;5046920;28;46384;-78
2023/12/24 03:17:45;;;;;;;1.20;0.70;;;7.00;44.90;;;;;;5048507;28;46822;-80
2023/12/24 03:20:11;;;;;;;1.00;0.63;;;7.00;44.70;;;;;;5048584;28;47381;-79
2023/12/24 03:22:36;;;;;;;1.30;0.67;;;7.10;44.70;;;;;;5050901;28;46368;-78
2023/12/24 03:25:03;;;;;;;1.10;0.67;;;7.00;44.50;;;;;;5048041;28;46459;-79
2023/12/24 03:27:29;;;;;;;0.90;0.50;;;7.10;44.40;;;;;;5065952;27;46615;-78
2023/12/24 03:29:54;;;;;;;1.10;0.60;;;7.10;44.10;;;;;;5052608;28;49017;-79
2023/12/24 03:32:20;;;;;;;1.23;0.70;;;7.20;44.10;;;;;;5051751;28;46560;-81
2023/12/24 03:34:45;;;;;;;1.43;0.60;;;7.20;43.90;;;;;;5051416;28;46519;-80
2023/12/24 03:37:11;;;;;;;1.00;0.60;;;7.20;43.80;;;;;;5051653;28;47898;-80
2023/12/24 03:39:36;;;;;;;1.00;0.60;;;7.30;43.80;;;;;;5057029;28;47923;-81
2023/12/24 03:42:02;;;;;;;1.00;0.60;;;7.30;43.80;;;;;;5051980;28;46572;-79
2023/12/24 03:44:27;;;;;;;1.77;0.60;;;7.30;43.50;;;;;;5053174;28;46521;-80
2023/12/24 03:46:53;;;;;;;1.10;0.60;;;7.40;43.40;;;;;;5051675;28;46573;-79
2023/12/24 03:49:20;;;;;;;1.70;0.80;;;7.40;43.30;;;;;;5049910;28;45908;-78
2023/12/24 03:51:47;;;;;;;1.37;0.70;;;7.40;43.10;;;;;;5052707;28;46476;-79
2023/12/24 03:54:13;;;;;;;1.97;0.70;;;7.40;43.20;;;;;;5052357;28;46616;-79
2023/12/24 03:56:38;;;;;;;1.13;0.60;;;7.40;43.10;;;;;;5055380;28;46457;-80
2023/12/24 03:59:04;;;;;;;1.10;0.63;;;7.50;42.80;;;;;;5059789;28;49733;-79
2023/12/24 04:01:29;;;;;;;1.27;0.70;;;7.50;42.70;;;;;;5061588;28;46499;-80
2023/12/24 04:03:55;;;;;;;1.03;0.57;;;7.50;42.70;;;;;;5062151;28;46414;-80
2023/12/24 04:06:20;;;;;;;1.00;0.60;;;7.50;42.60;;;;;;5068135;27;45882;-79
2023/12/24 04:08:46;;;;;;;1.47;0.77;;;7.50;42.50;;;;;;5057021;28;46481;-80
2023/12/24 04:11:21;;;;;;;1.00;0.60;;;7.50;42.40;;;;;;5054607;28;46468;-80
2023/12/24 04:13:46;;;;;;;1.80;0.80;;;7.50;42.40;;;;;;5052922;28;46930;-79
2023/12/24 04:16:12;;;;;;;1.40;0.90;;;7.50;42.20;;;;;;5054888;28;46465;-79
2023/12/24 04:18:37;;;;;;;1.10;0.60;;;7.50;42.20;;;;;;5053772;28;47926;-79
2023/12/24 04:21:03;;;;;;;1.30;0.60;;;7.50;42.20;;;;;;5056578;28;46593;-79
2023/12/24 04:23:29;;;;;;;1.30;0.70;;;7.50;42.10;;;;;;5053226;28;46533;-80
2023/12/24 04:25:54;;;;;;;1.23;0.60;;;7.50;42.10;;;;;;5053920;28;46458;-80
2023/12/24 04:28:20;;;;;;;1.27;0.70;;;7.50;42.00;;;;;;5051539;28;47189;-79
2023/12/24 04:30:45;;;;;;;2.43;0.70;;;7.50;42.10;;;;;;5058154;28;47944;-79
2023/12/24 04:33:11;;;;;;;1.00;0.50;;;7.50;42.10;;;;;;5055350;28;47232;-80
2023/12/24 04:35:37;;;;;;;1.00;0.57;;;7.50;42.00;;;;;;5052981;28;46045;-79
2023/12/24 04:38:03;;;;;;;1.20;0.60;;;7.50;42.00;;;;;;5054059;28;49229;-80
2023/12/24 04:40:29;;;;;;;1.00;0.57;;;7.50;41.90;;;;;;5059077;28;46854;-80
2023/12/24 04:42:54;;;;;;;1.20;0.70;;;7.50;41.70;;;;;;5055808;28;46484;-79
2023/12/24 04:45:20;;;;;;;1.00;0.60;;;7.50;41.70;;;;;;5052136;28;46471;-80
2023/12/24 04:47:46;;;;;;;1.20;0.70;;;7.50;41.60;;;;;;5059048;28;46162;-79
2023/12/24 04:50:11;;;;;;;1.17;0.60;;;7.50;41.80;;;;;;5054198;28;46477;-80
2023/12/24 04:52:37;;;;;;;1.30;0.60;;;7.50;41.80;;;;;;5059845;28;46726;-79
2023/12/24 04:55:04;;;;;;;1.10;0.57;;;7.40;41.70;;;;;;5053450;28;46506;-79
2023/12/24 04:57:30;;;;;;;1.63;0.70;;;7.40;41.80;;;;;;5054478;28;48006;-79
2023/12/24 04:59:55;;;;;;;1.10;0.70;;;7.40;41.70;;;;;;5053781;28;46419;-79
2023/12/24 05:02:21;;;;;;;1.10;0.63;;;7.50;41.60;;;;;;5050830;28;47464;-79
2023/12/24 05:04:46;;;;;;;1.17;0.80;;;7.50;41.40;;;;;;5051750;28;46019;-79
2023/12/24 05:07:12;;;;;;;3.00;0.70;;;7.50;41.40;;;;;;5052910;28;46831;-79
2023/12/24 05:09:42;;;;;;;2.57;0.70;;;7.40;41.60;;;;;;5049964;28;46305;-79
2023/12/24 05:12:08;;;;;;;1.13;0.70;;;7.40;41.40;;;;;;5050900;28;46413;-78
2023/12/24 05:14:34;;;;;;;1.20;0.70;;;7.50;41.40;;;;;;5052192;28;46163;-79
2023/12/24 05:17:00;;;;;;;1.47;0.70;;;7.40;41.40;;;;;;5050250;28;48928;-78
2023/12/24 05:19:26;;;;;;;1.13;0.70;;;7.40;41.40;;;;;;5058108;28;46332;-80
2023/12/24 05:21:51;;;;;;;1.73;0.70;;;7.60;41.60;;;;;;5050335;28;46647;-79
2023/12/24 05:24:17;;;;;;;1.20;0.70;;;7.40;41.30;;;;;;5051726;28;46375;-79
2023/12/24 05:26:42;;;;;;;1.13;0.60;;;7.50;41.40;;;;;;5053166;28;47381;-80
2023/12/24 05:29:08;;;;;;;1.60;0.70;;;7.40;41.40;;;;;;5050006;28;46487;-80
2023/12/24 05:31:38;;;;;;;1.23;0.70;;;7.40;41.40;;;;;;5052397;28;46403;-80
2023/12/24 05:34:04;;;;;;;2.20;0.80;;;7.40;41.40;;;;;;5051870;28;45818;-81
2023/12/24 05:36:32;;;;;;;1.10;0.70;;;7.50;41.40;;;;;;5056748;28;48224;-79
2023/12/24 05:38:58;;;;;;;1.73;0.90;;;7.50;41.40;;;;;;5058456;28;46350;-78
2023/12/24 05:41:24;;;;;;;1.97;0.80;;;7.40;41.40;;;;;;5049119;28;46458;-78
2023/12/24 05:43:49;;;;;;;1.67;0.70;;;7.50;41.50;;;;;;5058164;28;46901;-79
2023/12/24 05:46:15;;;;;;;1.40;0.70;;;7.50;41.50;;;;;;5049513;28;47293;-79
2023/12/24 05:48:41;;;;;;;1.30;0.70;;;7.40;41.50;;;;;;5049471;28;46693;-79
2023/12/24 05:51:07;;;;;;;1.40;0.80;;;7.50;41.40;;;;;;5048791;28;46703;-79
2023/12/24 05:53:33;;;;;;;2.47;0.90;;;7.60;41.50;;;;;;5049529;28;47060;-80
2023/12/24 05:55:59;;;;;;;2.57;0.80;;;7.60;41.20;;;;;;5051075;28;46884;-79
2023/12/24 05:58:25;;;;;;;1.00;0.60;;;7.60;41.20;;;;;;5051651;28;46454;-80
2023/12/24 06:00:51;;;;;;;1.50;0.70;;;7.50;41.30;;;;;;5051532;28;46463;-78
2023/12/24 06:03:17;;;;;;;1.10;0.60;;;7.50;41.30;;;;;;5048620;28;46492;-80
2023/12/24 06:05:42;;;;;;;1.30;0.63;;;7.50;41.50;;;;;;5048163;28;46942;-79
2023/12/24 06:08:08;;;;;;;1.00;0.60;;;7.50;41.40;;;;;;5053000;28;46405;-79
2023/12/24 06:10:34;;;;;;;1.40;0.80;;;7.60;41.50;;;;;;5051251;28;46693;-80
2023/12/24 06:13:03;;;;;;;1.60;1.10;;;7.60;41.40;;;;;;5053360;28;46489;-79
2023/12/24 06:15:28;;;;;;;1.10;0.63;;;7.60;41.30;;;;;;5053574;28;46599;-80
2023/12/24 06:17:54;;;;;;;1.10;0.63;;;7.60;41.20;;;;;;5053665;28;46474;-78
2023/12/24 06:20:19;;;;;;;1.30;0.60;;;7.60;41.20;;;;;;5054044;28;46471;-78
2023/12/24 06:22:45;;;;;;;2.07;0.70;;;7.60;41.30;;;;;;5052130;28;46593;-80
2023/12/24 06:25:10;;;;;;;1.70;0.60;;;7.60;41.30;;;;;;5055121;28;46449;-79
2023/12/24 06:27:36;;;;;;;1.17;0.70;;;7.60;41.20;;;;;;5055312;28;46392;-80
2023/12/24 06:30:02;;;;;;;1.10;0.60;;;7.60;41.10;;;;;;5056774;28;46423;-78
2023/12/24 06:32:27;;;;;;;1.10;0.60;;;7.60;41.10;;;;;;5058444;28;46527;-77
2023/12/24 06:34:53;;;;;;;1.10;0.60;;;7.60;41.10;;;;;;5056895;28;46630;-80
2023/12/24 06:37:18;;;;;;;1.10;0.70;;;7.60;42.30;;;;;;5062210;28;46351;-79
2023/12/24 06:39:44;;;;;;;1.30;0.67;;;7.60;41.10;;;;;;5056567;28;46485;-81
2023/12/24 06:42:09;;;;;;;1.20;0.63;;;7.60;41.10;;;;;;5064686;28;47662;-80
2023/12/24 06:44:35;;;;;;;1.03;0.53;;;7.60;41.20;;;;;;5055304;28;46550;-80
2023/12/24 06:47:00;;;;;;;1.60;0.70;;;7.50;41.20;;;;;;5053633;28;46248;-79
2023/12/24 06:49:26;;;;;;;1.27;0.67;;;7.50;41.20;;;;;;5046577;28;46998;-79
2023/12/24 06:51:51;;;;;;;1.73;0.73;;;7.50;41.30;;;;;;5046816;28;47021;-81
2023/12/24 06:54:17;;;;;;;2.10;0.80;;;7.50;41.30;;;;;;5053600;28;47182;-78
2023/12/24 06:56:42;;;;;;;1.13;0.60;;;7.50;41.40;;;;;;5046740;28;46431;-79
2023/12/24 06:59:08;;;;;;;1.23;0.80;;;7.50;41.40;;;;;;5046983;28;46649;-80
2023/12/24 07:01:34;;;;;;;1.70;0.60;;;7.50;41.40;;;;;;5049139;28;46875;-80
2023/12/24 07:03:59;;;;;;;1.03;0.60;;;7.50;41.30;;;;;;5050530;28;46446;-79
2023/12/24 07:06:25;;;;;;;1.13;0.70;;;7.50;41.30;;;;;;5048056;28;46519;-80
2023/12/24 07:08:51;;;;;;;1.37;0.67;;;7.50;41.20;;;;;;5048717;28;46667;-80
2023/12/24 07:11:18;;;;;;;2.50;0.60;;;7.50;41.20;;;;;;5053977;28;45927;-79
2023/12/24 07:13:43;;;;;;;1.40;0.70;;;7.50;41.10;;;;;;5053297;28;46763;-80
2023/12/24 07:16:09;;;;;;;2.63;0.70;;;7.50;42.40;;;;;;5047568;28;46401;-79
2023/12/24 07:18:35;;;;;;;1.50;0.73;;;7.50;41.10;;;;;;5052476;28;46583;-79
2023/12/24 07:21:00;;;;;;;1.17;0.63;;;7.60;41.20;;;;;;5047294;28;46406;-79
2023/12/24 07:23:26;;;;;;;1.10;0.70;;;7.60;41.10;;;;;;5049672;28;49428;-79
2023/12/24 07:25:51;;;;;;;1.07;0.63;;;7.60;41.00;;;;;;5049814;28;46942;-79
2023/12/24 07:28:17;;;;;;;1.17;0.63;;;7.60;40.90;;;;;;5054777;28;46722;-79
2023/12/24 07:30:42;;;;;;;1.10;0.63;;;7.60;40.90;;;;;;5052468;28;46571;-80
2023/12/24 07:33:08;;;;;;;2.23;0.70;;;7.60;40.70;;;;;;5049257;28;46498;-79
2023/12/24 07:35:33;;;;;;;1.77;0.70;;;7.70;40.80;;;;;;5051054;28;46493;-80
2023/12/24 07:37:59;;;;;;;1.50;0.80;;;7.70;40.60;;;;;;5048522;28;46945;-78
2023/12/24 07:40:24;;;;;;;1.60;0.83;;;7.70;40.50;;;;;;5051212;28;46424;-80
2023/12/24 07:42:50;;;;;;;2.20;0.80;;;7.70;40.50;;;;;;5048848;28;50206;-80
2023/12/24 07:45:16;;;;;;;3.40;0.70;;;7.80;40.50;;;;;;5053816;28;46913;-79
2023/12/24 07:47:42;;;;;;;1.30;0.70;;;7.80;41.60;;;;;;5057505;28;46415;-80
2023/12/24 07:50:07;;;;;;;1.10;0.70;;;7.80;40.20;;;;;;5057266;28;46295;-79
2023/12/24 07:52:33;;;;;;;1.30;0.70;;;7.80;41.50;;;;;;5051790;28;49343;-79
2023/12/24 07:54:59;;;;;;;1.40;0.77;;;7.80;40.20;;;;;;5054670;28;46551;-79
2023/12/24 07:57:24;;;;;;;1.43;0.70;;;7.80;40.20;;;;;;5052492;28;47186;-79
2023/12/24 07:59:50;;;;;;;1.60;0.63;;;7.80;40.10;;;;;;5050973;28;46935;-79
2023/12/24 08:02:15;;;;;;;1.90;0.80;;;7.80;40.00;;;;;;5051053;28;47584;-80
2023/12/24 08:04:45;;;;;;;1.20;0.70;;;7.80;39.90;;;;;;5050640;28;46809;-80
2023/12/24 08:07:11;;;;;;;1.20;0.70;;;7.80;39.80;;;;;;5052668;28;46428;-79
2023/12/24 08:09:36;;;;;;;1.90;0.80;;;7.90;39.90;;;;;;5051083;28;46606;-79
2023/12/24 08:12:02;;;;;;;2.37;0.80;;;7.80;39.80;;;;;;5050640;28;46588;-80
2023/12/24 08:14:28;;;;;;;1.20;0.80;;;7.90;39.80;;;;;;5051579;28;46498;-77
2023/12/24 08:16:54;;;;;;;1.10;0.70;;;7.90;39.70;;;;;;5052638;28;46531;-78
2023/12/24 08:19:19;;;;;;;1.50;0.90;;;7.90;39.50;;;;;;5051657;28;46312;-78
2023/12/24 08:21:45;;;;;;;1.60;0.90;;;7.90;39.50;;;;;;5059111;28;47986;-80
2023/12/24 08:24:10;;;;;;;3.43;0.80;;;8.00;39.40;;;;;;5039097;28;46483;-80
2023/12/24 08:26:36;;;;;;;1.40;0.73;;;8.00;39.20;;;;;;5053195;28;46418;-80
2023/12/24 08:29:01;;;;;;;2.07;0.70;;;8.00;39.00;;;;;;5052912;28;46529;-80
2023/12/24 08:31:27;;;;;;;1.10;0.70;;;8.10;39.10;;;;;;5055264;28;48396;-79
2023/12/24 08:33:52;;;;;;;1.20;0.70;;;8.10;38.90;;;;;;5042603;28;46396;-81
2023/12/24 08:36:18;;;;;;;1.50;0.70;;;8.20;38.80;;;;;;5055358;28;45867;-79
2023/12/24 08:38:44;;;;;;;1.50;0.70;;;8.20;38.80;;;;;;5057643;28;46401;-79
2023/12/24 08:41:09;;;;;;;1.50;0.77;;;8.20;38.60;;;;;;5053463;28;46728;-80
2023/12/24 08:43:35;;;;;;;1.30;0.80;;;8.20;38.50;;;;;;5047701;28;46790;-80
2023/12/24 08:46:03;;;;;;;1.50;0.90;;;8.20;38.10;;;;;;5049126;28;46397;-78
2023/12/24 08:48:29;;;;;;;1.43;0.80;;;8.20;37.80;;;;;;5050160;28;45869;-80
2023/12/24 08:50:56;;;;;;;6.60;0.70;;;8.30;37.90;;;;;;5049211;28;46463;-79
2023/12/24 08:53:22;;;;;;;2.97;1.77;;;8.40;38.00;;;;;;5049131;28;46500;-80
2023/12/24 08:55:47;;;;;;;1.70;0.80;;;8.50;38.10;;;;;;5052107;28;46574;-80
2023/12/24 08:58:13;;;;;;;1.33;0.80;;;8.50;38.10;;;;;;5054418;28;46411;-80
2023/12/24 09:00:38;;;;;;;1.87;0.93;;;8.50;38.10;;;;;;5050167;28;46554;-80
2023/12/24 09:03:04;;;;;;;1.40;0.70;;;8.50;38.10;;;;;;5051059;28;47021;-80
2023/12/24 09:05:29;;;;;;;4.73;0.83;;;8.50;38.00;;;;;;5049660;28;45873;-80
2023/12/24 09:07:55;;;;;;;1.93;0.90;;;8.70;37.70;;;;;;5054142;28;46474;-79
2023/12/24 09:10:20;;;;;;;1.57;0.90;;;8.70;37.50;;;;;;5050356;28;46486;-80
2023/12/24 09:12:46;;;;;;;1.23;0.77;;;8.80;37.20;;;;;;5050704;27;46351;-80
2023/12/24 09:15:11;;;;;;;2.80;0.90;;;8.80;37.20;;;;;;5051656;28;46430;-79
2023/12/24 09:17:37;;;;;;;5.43;2.60;;;8.80;37.20;;;;;;5049589;28;47605;-79
2023/12/24 09:20:05;;;;;;;3.00;1.47;;;8.80;37.10;;;;;;5049887;28;46418;-78
2023/12/24 09:22:31;;;;;;;3.10;1.70;;;8.80;37.00;;;;;;5053720;28;46516;-81
2023/12/24 09:24:56;;;;;;;1.87;1.13;;;8.90;37.00;;;;;;5049953;28;46655;-80
2023/12/24 09:27:22;;;;;;;4.53;2.10;;;8.90;36.80;;;;;;5048437;28;46491;-80
2023/12/24 09:29:47;;;;;;;5.80;1.67;;;9.00;36.70;;;;;;5052574;28;46601;-80
2023/12/24 09:32:13;;;;;;;4.20;1.30;;;9.00;36.60;;;;;;5049567;28;46506;-80
2023/12/24 09:34:38;;;;;;;2.40;1.30;;;9.00;36.50;;;;;;5053807;28;46453;-81
2023/12/24 09:37:04;;;;;;;2.57;1.10;;;9.00;36.40;;;;;;5051680;28;46360;-79
2023/12/24 09:39:29;;;;;;;1.37;0.87;;;9.10;36.30;;;;;;5057655;28;47939;-80
2023/12/24 09:41:57;;;;;;;1.83;0.97;;;9.10;36.10;;;;;;5051568;28;46757;-80
2023/12/24 09:44:23;;;;;;;3.10;1.27;;;9.10;36.00;;;;;;5053273;28;45880;-78
2023/12/24 09:46:49;;;;;;;1.97;0.90;;;9.20;36.10;;;;;;5062570;28;46554;-81
2023/12/24 09:49:15;;;;;;;2.23;1.00;;;9.20;36.00;;;;;;5050402;28;46503;-79
2023/12/24 09:51:42;;;;;;;1.50;0.83;;;9.20;36.00;;;;;;5039142;28;46384;-79
2023/12/24 09:54:08;;;;;;;3.60;1.37;;;9.20;35.90;;;;;;5047876;28;47063;-81
2023/12/24 09:56:33;;;;;;;1.60;0.93;;;9.20;35.90;;;;;;5044966;28;46738;-80
2023/12/24 09:58:59;;;;;;;3.93;0.80;;;9.30;35.60;;;;;;5048300;28;46466;-80
2023/12/24 10:01:25;;;;;;;11.10;4.03;;;9.40;35.40;;;;;;5050011;28;46736;-80
2023/12/24 10:03:50;;;;;;;2.73;1.40;;;9.40;35.00;;;;;;5047580;28;46679;-79
2023/12/24 10:06:17;;;;;;;2.80;1.47;;;9.50;34.80;;;;;;5049529;28;46625;-81
2023/12/24 10:08:43;;;;;;;3.50;2.10;;;9.50;34.60;;;;;;5050756;28;48130;-79
2023/12/24 10:11:15;;;;;;;8.30;3.50;;;9.60;34.40;;;;;;5049679;28;46372;-81
2023/12/24 10:13:41;;;;;;;4.07;1.43;;;9.60;34.30;;;;;;5050273;28;47444;-79
2023/12/24 10:16:09;;;;;;;2.13;1.30;;;9.70;34.40;;;;;;5051321;28;46513;-79
2023/12/24 10:18:35;;;;;;;1.83;0.97;;;9.70;34.30;;;;;;5052122;28;48236;-79
2023/12/24 10:21:09;;;;;;;14.60;4.93;;;9.60;34.20;;;;;;5054257;28;46502;-80
2023/12/24 10:23:35;;;;;;;1.93;0.90;;;9.60;34.00;;;;;;5046651;28;46938;-82
2023/12/24 10:26:06;;;;;;;2.47;1.10;;;9.60;34.10;;;;;;5055017;28;46804;-79
2023/12/24 10:28:32;;;;;;;2.10;1.20;;;9.60;33.90;;;;;;5053422;28;46637;-80
2023/12/24 10:31:08;;;;;;;2.90;1.27;;;9.60;34.00;;;;;;5048007;28;46036;-80
2023/12/24 10:33:36;;;;;;;3.63;2.20;;;9.60;34.10;;;;;;5051455;28;46434;-79
2023/12/24 10:36:01;;;;;;;6.63;2.80;;;9.60;34.20;;;;;;5048774;28;45879;-78
2023/12/24 10:38:27;;;;;;;3.63;2.10;;;9.60;34.10;;;;;;5047701;28;47262;-78
2023/12/24 10:40:53;;;;;;;5.30;2.37;;;9.50;34.10;;;;;;5064516;27;47202;-80
2023/12/24 10:43:19;;;;;;;2.50;1.50;;;9.50;34.30;;;;;;5050328;28;46424;-78
2023/12/24 10:45:45;;;;;;;7.97;5.20;;;9.40;34.50;;;;;;5048580;28;45870;-78
2023/12/24 10:48:11;;;;;;;6.50;3.40;;;9.40;34.60;;;;;;5049873;28;46750;-79
2023/12/24 10:50:37;;;;;;;2.27;1.30;;;9.30;34.90;;;;;;5049202;28;46213;-79
2023/12/24 10:53:02;;;;;;;4.53;2.53;;;9.30;35.00;;;;;;5048720;28;46447;-78
2023/12/24 10:55:31;;;;;;;2.33;0.97;;;9.30;35.30;;;;;;5048174;28;46594;-79
2023/12/24 10:58:21;;;;;;;2.93;1.70;;;9.30;35.50;;;;;;5048636;28;47180;-80
2023/12/24 11:00:47;;;;;;;4.07;2.00;;;9.30;35.80;;;;;;5048239;28;47013;-79
2023/12/24 11:03:42;;;;;;;2.63;0.90;;;9.30;36.00;;;;;;5049931;28;46534;-79
2023/12/24 11:06:09;;;;;;;2.40;1.23;;;9.20;36.40;;;;;;5055035;28;46430;-78
2023/12/24 11:08:34;;;;;;;3.30;1.63;;;9.20;36.60;;;;;;5047935;28;46233;-77
2023/12/24 11:11:06;;;;;;;2.97;1.60;;;9.30;36.60;;;;;;5049307;28;46518;-79
2023/12/24 11:13:32;;;;;;;4.80;2.80;;;9.30;36.80;;;;;;5046917;28;46488;-80
2023/12/24 11:15:59;;;;;;;5.13;2.37;;;9.20;37.20;;;;;;5055561;28;46402;-79
2023/12/24 11:18:46;;;;;;;1.57;0.83;;;9.20;37.40;;;;;;5048977;28;46648;-79
2023/12/24 11:21:17;;;;;;;3.57;1.63;;;9.20;38.00;;;;;;5056728;28;46982;-80
2023/12/24 11:24:08;;;;;;;8.90;2.30;;;9.10;38.40;;;;;;5054264;28;46416;-80
2023/12/24 11:26:33;;;;;;;4.23;2.60;;;9.10;38.60;;;;;;5054674;28;46612;-79
2023/12/24 11:29:00;;;;;;;1.50;1.00;;;9.00;38.60;;;;;;5049248;28;47242;-80
2023/12/24 11:31:27;;;;;;;1.93;1.10;;;9.00;38.60;;;;;;5048013;28;46641;-79
2023/12/24 11:33:54;;;;;;;2.40;1.27;;;8.90;39.40;;;;;;5051690;28;46396;-79
2023/12/24 11:36:22;;;;;;;3.30;1.80;;;8.90;40.00;;;;;;5049608;28;46414;-80
2023/12/24 11:38:56;;;;;;;10.00;1.50;;;8.80;40.30;;;;;;5052454;28;46783;-81
2023/12/24 11:41:23;;;;;;;2.67;1.73;;;8.80;40.70;;;;;;5050042;28;46413;-79
2023/12/24 11:43:56;;;;;;;2.90;1.67;;;8.80;41.20;;;;;;5052083;28;46529;-80
2023/12/24 11:46:28;;;;;;;2.40;1.27;;;8.80;41.40;;;;;;5050736;28;46700;-80
2023/12/24 11:49:00;;;;;;;2.03;1.47;;;8.80;41.60;;;;;;5050697;28;46654;-79
2023/12/24 11:51:26;;;;;;;2.00;1.10;;;8.80;42.10;;;;;;5050137;28;45906;-80
2023/12/24 11:54:04;;;;;;;1.80;0.90;;;8.80;42.40;;;;;;5048172;28;46450;-81
2023/12/24 11:56:30;;;;;;;2.57;1.20;;;8.80;42.90;;;;;;5058228;28;46413;-78
2023/12/24 11:59:04;;;;;;;1.90;0.97;;;8.90;42.70;;;;;;5052974;28;46852;-78
2023/12/24 12:01:37;;;;;;;1.50;0.77;;;8.90;42.70;;;;;;5050635;28;46898;-79
2023/12/24 12:04:04;;;;;;;2.23;1.00;;;8.90;43.00;;;;;;5050752;28;46376;-80
2023/12/24 12:06:34;;;;;;;2.40;0.90;;;8.90;43.80;;;;;;5055800;28;46612;-78
2023/12/24 12:09:05;;;;;;;2.07;1.00;;;8.80;44.70;;;;;;5048399;28;46683;-80
2023/12/24 12:11:32;;;;;;;1.53;0.80;;;8.80;45.00;;;;;;5051622;28;46463;-80
2023/12/24 12:14:01;;;;;;;2.30;1.00;;;8.80;45.30;;;;;;5050236;28;46418;-79
2023/12/24 12:16:27;;;;;;;1.97;1.00;;;8.80;45.40;;;;;;5050224;28;46419;-79
2023/12/24 12:18:52;;;;;;;1.40;0.80;;;8.80;45.60;;;;;;5051209;28;47150;-81
2023/12/24 12:21:19;;;;;;;1.87;0.80;;;8.80;46.00;;;;;;5050896;28;48784;-81
2023/12/24 12:23:44;;;;;;;1.63;0.97;;;8.80;46.20;;;;;;5051120;28;46991;-81
2023/12/24 12:26:10;;;;;;;1.20;0.77;;;8.80;46.60;;;;;;5063678;28;46420;-80
2023/12/24 12:28:36;;;;;;;1.23;0.80;;;8.80;46.80;;;;;;5059817;28;48422;-81
2023/12/24 12:31:02;;;;;;;3.00;1.20;;;8.90;47.20;;;;;;5056335;28;46791;-78
2023/12/24 12:33:28;;;;;;;1.70;1.00;;;8.90;47.20;;;;;;5051202;28;46828;-81
2023/12/24 12:35:55;;;;;;;2.87;1.10;;;9.00;47.20;;;;;;5050422;28;46486;-80
2023/12/24 12:38:21;;;;;;;1.57;1.00;;;8.90;47.40;;;;;;5051799;28;47799;-80
2023/12/24 12:40:46;;;;;;;1.40;0.70;;;8.90;47.70;;;;;;5051652;28;46481;-79
2023/12/24 12:43:12;;;;;;;2.20;0.90;;;8.90;48.30;;;;;;5049763;28;46737;-79
2023/12/24 12:45:37;;;;;;;1.40;0.90;;;8.90;48.30;;;;;;5051747;28;46375;-79
2023/12/24 12:48:04;;;;;;;1.40;0.77;;;8.80;48.80;;;;;;5058284;28;47994;-79
2023/12/24 12:50:29;;;;;;;1.67;0.90;;;8.80;49.30;;;;;;5052428;28;46856;-79
2023/12/24 12:52:55;;;;;;;2.40;1.30;;;8.80;49.40;;;;;;5048621;28;47193;-80